Kernville, CA (93238)

6:10 PM PDT on September 01, 2015 (GMT -0700)
Kernwood Ranches | | Change Station
CLOSE
Current Station
Personal Weather Station
Location: Wofford Heights, CA
Elevation: 2910 ft
Nearby Weather Stations

Elev 2910 ft 35.74 °N, 118.43 °W | Updated 8 minutes ago

Clear
Clear
88.9 °F
Feels Like 85 °F
N
4.2
Wind Variable Wind from SSW

Today
High -- | Low -- °F
--% Chance of Precip.
Yesterday
High -- | Low -- °F
Precip. -- in
6:25 AM 7:21 PM
Waning Gibbous, 85% visible
Pressure 29.76 in
Visibility 10.0 miles
Clouds Mostly Cloudy 28000 ft
Heat Index 85 °F
Dew Point 40 °F
Humidity 18%
Rainfall 0.00 in
Snow Depth Not available.
UV 1 out of 12
Pollen 8.60 out of 12
Air Quality Not available.
Flu Activity Not available.
METAR KNID 020056Z 18006G16KT 10SM BKN280 36/M08 A2983 RMK AO2 SLP077 T03561078 $
Pressure 29.76 in
Visibility 10.0 miles
Clouds Mostly Cloudy 28000 ft
Heat Index 85 °F
Dew Point 40 °F
Humidity 18%
Rainfall 0.00 in
Snow Depth Not available.
UV 1 out of 12
Pollen 8.60 out of 12
Air Quality Not available.
Flu Activity Not available.
METAR KNID 020056Z 18006G16KT 10SM BKN280 36/M08 A2983 RMK AO2 SLP077 T03561078 $

10-Day Weather Forecast

×

Almanac

Astronomy

Sep. 01, 2015 Rise Set
Actual Time
Civil Twilight
Nautical Twilight
Astronomical Twilight
Moon
Length of Visible Light
Length of Day
Tomorrow will be .
, % of the Moon is Illuminated

Today's Extremes

State Highs State Lows

Community

WunderPhotos

Upload Photos

1,851,667 photos uploaded!

WunderBlogs® & News

Nearby

Air Quality

  Air Quality AQ Index Pollutant
Not available.

Snow Depth

Station Depth Elevation

Earthquake Activity

City Distance Mag. Time & Date
Minimum magnitude displayed is 2.5.

Coastal Water Temperatures

Place Temperature

Stations

Nearby Weather Stations

Station Location Temp. Windchill Dew Point Humidity Wind Precip. Elev Updated Type